createdAt,value
2022-11-08T00:00:13.556Z,991.07
2022-11-08T00:01:13.530Z,991.04
2022-11-08T00:02:13.690Z,991.09
2022-11-08T00:03:13.598Z,991.06
2022-11-08T00:04:13.536Z,991.07
2022-11-08T00:05:13.554Z,990.93
2022-11-08T00:06:13.544Z,991.06
2022-11-08T00:07:13.549Z,990.92
2022-11-08T00:08:13.582Z,991.05
2022-11-08T00:09:13.546Z,991.05
2022-11-08T00:10:13.535Z,991.03
2022-11-08T00:11:13.523Z,990.95
2022-11-08T00:12:13.543Z,990.91
2022-11-08T00:13:13.555Z,991.00
2022-11-08T00:14:13.559Z,990.94
2022-11-08T00:15:13.612Z,990.93
2022-11-08T00:16:13.576Z,990.95
2022-11-08T00:17:13.567Z,990.92
2022-11-08T00:18:13.611Z,990.90
2022-11-08T00:19:13.619Z,990.86
2022-11-08T00:20:13.623Z,990.90
2022-11-08T00:21:13.631Z,990.93
2022-11-08T00:22:13.657Z,990.90
2022-11-08T00:23:13.664Z,990.91
2022-11-08T00:24:13.683Z,990.92
2022-11-08T00:25:13.677Z,990.92
2022-11-08T00:26:13.707Z,990.91
2022-11-08T00:27:13.702Z,990.87
2022-11-08T00:28:13.768Z,990.79
2022-11-08T00:29:13.744Z,990.82
2022-11-08T00:30:13.731Z,990.89
2022-11-08T00:31:13.750Z,990.88
2022-11-08T00:32:13.769Z,990.83
2022-11-08T00:33:13.761Z,990.80
2022-11-08T00:34:13.793Z,990.78
2022-11-08T00:35:13.807Z,990.83
2022-11-08T00:36:13.819Z,990.84
2022-11-08T00:37:13.843Z,990.88
2022-11-08T00:38:13.979Z,990.86
2022-11-08T00:39:13.863Z,990.83
2022-11-08T00:40:13.872Z,990.83
2022-11-08T00:41:13.876Z,990.89
2022-11-08T00:42:13.880Z,990.90
2022-11-08T00:43:13.890Z,990.88
2022-11-08T00:44:13.904Z,990.91
2022-11-08T00:45:13.935Z,990.90
2022-11-08T00:46:13.929Z,990.88
2022-11-08T00:47:13.942Z,990.90
2022-11-08T00:48:14.033Z,990.87
2022-11-08T00:49:13.981Z,990.97
2022-11-08T00:50:13.988Z,990.89
2022-11-08T00:51:13.988Z,990.92
2022-11-08T00:52:14.007Z,990.89
2022-11-08T00:53:14.050Z,990.90
2022-11-08T00:54:14.010Z,990.94
2022-11-08T00:55:14.039Z,990.97
2022-11-08T00:56:14.072Z,990.97
2022-11-08T00:57:14.065Z,990.94
2022-11-08T00:58:14.088Z,990.94
2022-11-08T00:59:14.089Z,990.89
2022-11-08T01:00:14.095Z,990.81
2022-11-08T01:01:14.219Z,990.84
2022-11-08T01:02:14.205Z,990.82
2022-11-08T01:03:14.153Z,990.82
2022-11-08T01:04:14.160Z,990.92
2022-11-08T01:05:14.155Z,990.88
2022-11-08T01:06:14.171Z,990.87
2022-11-08T01:07:14.207Z,990.87
2022-11-08T01:08:14.347Z,990.87
2022-11-08T01:09:14.195Z,990.88
2022-11-08T01:10:14.211Z,990.83
2022-11-08T01:11:14.227Z,990.78
2022-11-08T01:12:14.257Z,990.82
2022-11-08T01:13:14.280Z,990.88
2022-11-08T01:14:35.062Z,990.83
2022-11-08T01:15:35.133Z,990.82
2022-11-08T01:16:35.100Z,990.87
2022-11-08T01:17:35.098Z,990.82
2022-11-08T01:18:35.103Z,990.87
2022-11-08T01:19:35.103Z,990.87
2022-11-08T01:20:35.092Z,990.80
2022-11-08T01:21:35.116Z,990.78
2022-11-08T01:22:35.107Z,990.89
2022-11-08T01:23:35.116Z,990.80
2022-11-08T01:24:35.120Z,990.84
2022-11-08T01:25:35.127Z,990.80
2022-11-08T01:26:35.118Z,990.81
2022-11-08T01:27:35.124Z,990.79
2022-11-08T01:28:35.138Z,990.79
2022-11-08T01:29:35.151Z,990.78
2022-11-08T01:30:35.129Z,990.72
2022-11-08T01:31:35.141Z,990.73
2022-11-08T01:32:35.131Z,990.68
2022-11-08T01:33:35.148Z,990.65
2022-11-08T01:34:35.137Z,990.67
2022-11-08T01:35:35.139Z,990.71
2022-11-08T01:36:35.145Z,990.65
2022-11-08T01:37:35.135Z,990.69
2022-11-08T01:38:35.169Z,990.74
2022-11-08T01:39:35.137Z,990.76
2022-11-08T01:40:35.137Z,990.66
2022-11-08T01:41:35.138Z,990.64
2022-11-08T01:42:35.138Z,990.60
2022-11-08T01:43:35.186Z,990.66
2022-11-08T01:44:35.135Z,990.68
2022-11-08T01:45:35.139Z,990.59
2022-11-08T01:46:35.117Z,990.63
2022-11-08T01:47:35.138Z,990.56
2022-11-08T01:48:35.150Z,990.62
2022-11-08T01:49:35.154Z,990.61
2022-11-08T01:50:35.136Z,990.59
2022-11-08T01:51:35.276Z,990.53
2022-11-08T01:52:35.296Z,990.52
2022-11-08T01:53:35.314Z,990.54
2022-11-08T01:54:35.319Z,990.49
2022-11-08T01:55:35.326Z,990.55
2022-11-08T01:56:35.335Z,990.54
2022-11-08T01:57:35.353Z,990.52
2022-11-08T01:58:35.364Z,990.52
2022-11-08T01:59:35.375Z,990.55
2022-11-08T02:00:35.376Z,990.50
2022-11-08T02:01:35.491Z,990.48
2022-11-08T02:02:35.441Z,990.48
2022-11-08T02:03:35.412Z,990.49
2022-11-08T02:04:35.466Z,990.48
2022-11-08T02:05:35.449Z,990.48
2022-11-08T02:06:35.504Z,990.57
2022-11-08T02:07:35.459Z,990.48
2022-11-08T02:08:35.487Z,990.47
2022-11-08T02:09:35.500Z,990.46
2022-11-08T02:10:35.515Z,990.34
2022-11-08T02:11:35.538Z,990.37
2022-11-08T02:12:35.553Z,990.42
2022-11-08T02:13:35.541Z,990.37
2022-11-08T02:14:35.561Z,990.41
2022-11-08T02:15:35.565Z,990.43
2022-11-08T02:16:35.579Z,990.40
2022-11-08T02:17:35.591Z,990.30
2022-11-08T02:18:35.624Z,990.36
2022-11-08T02:19:35.647Z,990.31
2022-11-08T02:20:35.614Z,990.27
2022-11-08T02:21:35.653Z,990.26
2022-11-08T02:22:35.645Z,990.28
2022-11-08T02:23:35.658Z,990.23
2022-11-08T02:24:35.676Z,990.26
2022-11-08T02:25:35.690Z,990.26
2022-11-08T02:26:35.703Z,990.18
2022-11-08T02:27:35.713Z,990.18
2022-11-08T02:28:35.717Z,990.19
2022-11-08T02:29:35.756Z,990.15
2022-11-08T02:30:35.749Z,990.11
2022-11-08T02:31:35.757Z,990.19
2022-11-08T02:32:35.771Z,990.11
2022-11-08T02:33:35.770Z,990.09
2022-11-08T02:34:35.817Z,990.18
2022-11-08T02:35:35.807Z,990.18
2022-11-08T02:36:35.813Z,990.08
2022-11-08T02:37:35.826Z,990.15
2022-11-08T02:38:35.848Z,990.08
2022-11-08T02:39:35.867Z,990.13
2022-11-08T02:40:35.891Z,990.10
2022-11-08T02:41:35.880Z,990.08
2022-11-08T02:42:35.891Z,990.06
2022-11-08T02:43:35.903Z,990.09
2022-11-08T02:44:35.925Z,990.07
2022-11-08T02:45:35.935Z,990.00
2022-11-08T02:46:35.930Z,990.00
2022-11-08T02:47:35.948Z,990.06
2022-11-08T02:48:35.955Z,990.02
2022-11-08T02:49:35.985Z,989.99
2022-11-08T02:50:35.987Z,990.05
2022-11-08T02:51:35.997Z,990.02
2022-11-08T02:52:36.013Z,990.03
2022-11-08T02:53:36.021Z,989.98
2022-11-08T02:54:36.047Z,990.01
2022-11-08T02:55:36.130Z,989.96
2022-11-08T02:56:36.073Z,989.97
2022-11-08T02:57:36.068Z,989.95
2022-11-08T02:58:36.073Z,989.82
2022-11-08T02:59:36.094Z,989.74
2022-11-08T03:00:36.157Z,989.74
2022-11-08T03:01:36.299Z,989.76
2022-11-08T03:02:36.155Z,989.80
2022-11-08T03:03:36.152Z,989.84
2022-11-08T03:04:36.149Z,989.78
2022-11-08T03:05:36.173Z,989.77
2022-11-08T03:06:36.218Z,989.80
2022-11-08T03:07:36.191Z,989.75
2022-11-08T03:08:36.198Z,989.68
2022-11-08T03:09:36.221Z,989.70
2022-11-08T03:10:36.211Z,989.65
2022-11-08T03:11:36.249Z,989.70
2022-11-08T03:12:36.251Z,989.75
2022-11-08T03:13:36.264Z,989.71
2022-11-08T03:14:36.276Z,989.75
2022-11-08T03:15:36.280Z,989.68
2022-11-08T03:16:36.277Z,989.64
2022-11-08T03:17:36.324Z,989.66
2022-11-08T03:18:36.324Z,989.63
2022-11-08T03:19:36.326Z,989.68
2022-11-08T03:20:36.361Z,989.57
2022-11-08T03:21:36.368Z,989.60
2022-11-08T03:22:36.417Z,989.57
2022-11-08T03:23:36.390Z,989.63
2022-11-08T03:24:36.391Z,989.52
2022-11-08T03:25:36.413Z,989.58
2022-11-08T03:26:36.427Z,989.56
2022-11-08T03:27:36.457Z,989.64
2022-11-08T03:28:36.444Z,989.61
2022-11-08T03:29:36.460Z,989.62
2022-11-08T03:30:36.473Z,989.58
2022-11-08T03:31:36.476Z,989.56
2022-11-08T03:32:36.498Z,989.58
2022-11-08T03:33:36.503Z,989.46
2022-11-08T03:34:36.514Z,989.54
2022-11-08T03:35:36.528Z,989.54
2022-11-08T03:36:36.555Z,989.59
2022-11-08T03:37:36.557Z,989.54
2022-11-08T03:38:36.574Z,989.58
2022-11-08T03:39:36.572Z,989.45
2022-11-08T03:40:36.593Z,989.45
2022-11-08T03:41:36.613Z,989.49
2022-11-08T03:42:36.619Z,989.47
2022-11-08T03:43:36.613Z,989.41
2022-11-08T03:44:36.628Z,989.42
2022-11-08T03:45:36.652Z,989.37
2022-11-08T03:46:36.658Z,989.48
2022-11-08T03:47:36.676Z,989.43
2022-11-08T03:48:36.679Z,989.46
2022-11-08T03:49:36.712Z,989.42
2022-11-08T03:50:36.715Z,989.42
2022-11-08T03:51:36.712Z,989.41
2022-11-08T03:52:36.730Z,989.44
2022-11-08T03:53:36.804Z,989.51
2022-11-08T03:54:36.747Z,989.47
2022-11-08T03:55:36.765Z,989.43
2022-11-08T03:56:36.775Z,989.48
2022-11-08T03:57:36.780Z,989.56
2022-11-08T03:58:36.851Z,989.50
2022-11-08T03:59:36.812Z,989.54
2022-11-08T04:00:36.833Z,989.58
2022-11-08T04:01:36.932Z,989.49
2022-11-08T04:02:36.936Z,989.51
2022-11-08T04:03:36.865Z,989.44
2022-11-08T04:04:36.889Z,989.54
2022-11-08T04:05:36.882Z,989.45
2022-11-08T04:06:36.904Z,989.45
2022-11-08T04:07:36.924Z,989.47
2022-11-08T04:08:36.930Z,989.43
2022-11-08T04:09:36.943Z,989.42
2022-11-08T04:10:36.975Z,989.40
2022-11-08T04:11:36.960Z,989.42
2022-11-08T04:12:36.962Z,989.43
2022-11-08T04:13:36.980Z,989.39
2022-11-08T04:14:37.012Z,989.43
2022-11-08T04:15:37.009Z,989.45
2022-11-08T04:16:37.062Z,989.39
2022-11-08T04:17:37.035Z,989.36
2022-11-08T04:18:37.031Z,989.32
2022-11-08T04:19:37.073Z,989.36
2022-11-08T04:20:37.055Z,989.36
2022-11-08T04:21:37.066Z,989.31
2022-11-08T04:22:37.081Z,989.27
2022-11-08T04:23:37.099Z,989.33
2022-11-08T04:24:37.128Z,989.19
2022-11-08T04:25:37.136Z,989.15
2022-11-08T04:26:37.144Z,989.18
2022-11-08T04:27:37.145Z,989.11
2022-11-08T04:28:37.167Z,989.19
2022-11-08T04:29:37.176Z,989.20
2022-11-08T04:30:37.180Z,989.16
2022-11-08T04:31:37.223Z,989.19
2022-11-08T04:32:37.200Z,989.16
2022-11-08T04:33:37.219Z,989.12
2022-11-08T04:34:37.236Z,989.14
2022-11-08T04:35:37.236Z,989.20
2022-11-08T04:36:37.247Z,989.22
2022-11-08T04:37:37.268Z,989.15
2022-11-08T04:38:37.322Z,989.22
2022-11-08T04:39:37.298Z,989.17
2022-11-08T04:40:37.302Z,989.13
2022-11-08T04:41:37.313Z,989.15
2022-11-08T04:42:37.328Z,989.11
2022-11-08T04:43:37.333Z,989.05
2022-11-08T04:44:37.365Z,989.04
2022-11-08T04:45:37.378Z,989.05
2022-11-08T04:46:37.371Z,989.06
2022-11-08T04:47:40.294Z,989.01
2022-11-08T04:48:37.383Z,989.08
2022-11-08T04:49:37.392Z,989.06
2022-11-08T04:50:37.408Z,989.05
2022-11-08T04:51:37.388Z,989.08
2022-11-08T04:52:37.399Z,989.10
2022-11-08T04:53:37.407Z,989.17
2022-11-08T04:54:37.392Z,989.05
2022-11-08T04:55:37.408Z,989.07
2022-11-08T04:56:37.405Z,988.97
2022-11-08T04:57:37.396Z,988.98
2022-11-08T04:58:37.412Z,988.94
2022-11-08T04:59:37.459Z,989.00
2022-11-08T05:00:37.399Z,988.97
2022-11-08T05:01:37.519Z,988.98
2022-11-08T05:02:37.531Z,988.93
2022-11-08T05:03:37.401Z,989.06
2022-11-08T05:04:37.395Z,988.89
2022-11-08T05:05:37.395Z,988.95
2022-11-08T05:06:37.396Z,988.95
2022-11-08T05:07:37.424Z,988.95
2022-11-08T05:08:37.400Z,988.83
2022-11-08T05:09:37.413Z,988.93
2022-11-08T05:10:37.404Z,988.80
2022-11-08T05:11:37.407Z,988.85
2022-11-08T05:12:37.416Z,988.83
2022-11-08T05:13:37.407Z,988.82
2022-11-08T05:14:37.450Z,988.79
2022-11-08T05:15:37.434Z,988.74
2022-11-08T05:16:37.421Z,988.79
2022-11-08T05:17:37.414Z,988.82
2022-11-08T05:18:37.410Z,988.68
2022-11-08T05:19:37.413Z,988.75
2022-11-08T05:20:37.443Z,988.63
2022-11-08T05:21:37.426Z,988.60
2022-11-08T05:22:37.434Z,988.62
2022-11-08T05:23:37.432Z,988.67
2022-11-08T05:24:37.460Z,988.71
2022-11-08T05:25:37.428Z,988.64
2022-11-08T05:26:37.422Z,988.60
2022-11-08T05:27:37.442Z,988.64
2022-11-08T05:28:37.403Z,988.67
2022-11-08T05:29:41.951Z,988.59
2022-11-08T05:30:37.430Z,988.56
2022-11-08T05:31:37.436Z,988.59
2022-11-08T05:32:37.448Z,988.61
2022-11-08T05:33:37.428Z,988.63
2022-11-08T05:34:37.424Z,988.61
2022-11-08T05:35:37.427Z,988.44
2022-11-08T05:36:37.444Z,988.45
2022-11-08T05:37:37.457Z,988.39
2022-11-08T05:38:37.427Z,988.38
2022-11-08T05:39:37.426Z,988.33
2022-11-08T05:40:37.431Z,988.39
2022-11-08T05:41:37.446Z,988.43
2022-11-08T05:42:37.462Z,988.41
2022-11-08T05:43:37.433Z,988.42
2022-11-08T05:44:37.507Z,988.40
2022-11-08T05:45:37.433Z,988.38
2022-11-08T05:46:37.447Z,988.46
2022-11-08T05:47:37.463Z,988.41
2022-11-08T05:48:37.449Z,988.43
2022-11-08T05:49:37.453Z,988.44
2022-11-08T05:50:37.441Z,988.38
2022-11-08T05:51:37.450Z,988.44
2022-11-08T05:52:37.449Z,988.41
2022-11-08T05:53:37.452Z,988.43
2022-11-08T05:54:37.449Z,988.44
2022-11-08T05:55:37.458Z,988.38
2022-11-08T05:56:37.453Z,988.39
2022-11-08T05:57:37.462Z,988.31
2022-11-08T05:58:37.470Z,988.30
2022-11-08T05:59:37.453Z,988.38
2022-11-08T06:00:37.462Z,988.36
2022-11-08T06:01:37.520Z,988.44
2022-11-08T06:02:37.515Z,988.33
2022-11-08T06:03:37.609Z,988.40
2022-11-08T06:04:37.457Z,988.46
2022-11-08T06:05:37.467Z,988.45
2022-11-08T06:06:37.465Z,988.47
2022-11-08T06:07:37.462Z,988.42
2022-11-08T06:08:37.464Z,988.40
2022-11-08T06:09:37.468Z,988.46
2022-11-08T06:10:37.462Z,988.45
2022-11-08T06:11:37.501Z,988.47
2022-11-08T06:12:37.460Z,988.42
2022-11-08T06:13:37.485Z,988.37
2022-11-08T06:14:37.473Z,988.47
2022-11-08T06:15:37.489Z,988.51
2022-11-08T06:16:37.467Z,988.54
2022-11-08T06:17:37.453Z,988.53
2022-11-08T06:18:37.502Z,988.55
2022-11-08T06:19:37.483Z,988.51
2022-11-08T06:20:37.499Z,988.46
2022-11-08T06:21:37.468Z,988.48
2022-11-08T06:22:37.466Z,988.37
2022-11-08T06:23:37.483Z,988.27
2022-11-08T06:24:37.469Z,988.28
2022-11-08T06:25:37.558Z,988.29
2022-11-08T06:26:37.472Z,988.28
2022-11-08T06:27:37.478Z,988.29
2022-11-08T06:28:37.480Z,988.32
2022-11-08T06:29:37.481Z,988.26
2022-11-08T06:30:37.495Z,988.33
2022-11-08T06:31:41.959Z,988.30
2022-11-08T06:32:37.498Z,988.29
2022-11-08T06:33:37.507Z,988.29
2022-11-08T06:34:37.482Z,988.19
2022-11-08T06:35:37.510Z,988.19
2022-11-08T06:36:37.536Z,988.17
2022-11-08T06:37:37.522Z,988.18
2022-11-08T06:38:37.505Z,988.19
2022-11-08T06:39:37.522Z,988.07
2022-11-08T06:40:37.502Z,988.10
2022-11-08T06:41:37.519Z,988.09
2022-11-08T06:42:37.533Z,988.05
2022-11-08T06:43:37.511Z,988.16
2022-11-08T06:44:37.509Z,988.18
2022-11-08T06:45:37.541Z,988.15
2022-11-08T06:46:37.541Z,988.16
2022-11-08T06:47:37.519Z,988.04
2022-11-08T06:48:37.584Z,988.08
2022-11-08T06:49:37.498Z,988.15
2022-11-08T06:50:37.481Z,988.19
2022-11-08T06:51:37.523Z,988.16
2022-11-08T06:52:37.544Z,988.17
2022-11-08T06:53:37.515Z,988.17
2022-11-08T06:54:37.544Z,988.17
2022-11-08T06:55:37.543Z,988.09
2022-11-08T06:56:37.524Z,988.05
2022-11-08T06:57:37.491Z,988.11
2022-11-08T06:58:37.535Z,988.11
2022-11-08T06:59:37.500Z,988.20
2022-11-08T07:00:37.523Z,988.15
2022-11-08T07:01:39.934Z,988.20
2022-11-08T07:02:37.634Z,988.21
2022-11-08T07:03:37.522Z,988.23
2022-11-08T07:04:37.533Z,988.26
2022-11-08T07:05:37.527Z,988.27
2022-11-08T07:06:37.526Z,988.26
2022-11-08T07:07:37.519Z,988.22
2022-11-08T07:08:37.804Z,988.18
2022-11-08T07:09:37.519Z,988.15
2022-11-08T07:10:37.552Z,988.16
2022-11-08T07:11:37.544Z,988.13
2022-11-08T07:12:37.539Z,988.15
2022-11-08T07:13:37.520Z,988.10
2022-11-08T07:15:16.565Z,988.05
2022-11-08T07:16:16.537Z,988.19
2022-11-08T07:17:16.565Z,988.14
2022-11-08T07:18:16.721Z,988.26
2022-11-08T07:19:16.550Z,988.28
2022-11-08T07:20:16.551Z,988.18
2022-11-08T07:21:16.522Z,988.17
2022-11-08T07:22:16.522Z,988.25
2022-11-08T07:23:16.542Z,988.23
2022-11-08T07:24:16.545Z,988.31
2022-11-08T07:25:16.556Z,988.18
2022-11-08T07:26:16.556Z,988.21
2022-11-08T07:27:16.556Z,988.20
2022-11-08T07:28:16.562Z,988.21
2022-11-08T07:29:16.567Z,988.26
2022-11-08T07:30:16.597Z,988.24
2022-11-08T07:31:16.576Z,988.22
2022-11-08T07:32:16.562Z,988.22
2022-11-08T07:33:17.120Z,988.27
2022-11-08T07:34:16.563Z,988.25
2022-11-08T07:35:16.583Z,988.24
2022-11-08T07:36:16.591Z,988.20
2022-11-08T07:37:16.582Z,988.29
2022-11-08T07:38:16.573Z,988.33
2022-11-08T07:39:16.586Z,988.27
2022-11-08T07:40:16.590Z,988.32
2022-11-08T07:41:16.621Z,988.15
2022-11-08T07:42:16.604Z,988.25
2022-11-08T07:43:16.589Z,988.22
2022-11-08T07:44:16.569Z,988.19
2022-11-08T07:45:16.576Z,988.21
2022-11-08T07:46:16.582Z,988.16
2022-11-08T07:47:16.593Z,988.20
2022-11-08T07:48:16.586Z,988.17
2022-11-08T07:49:16.604Z,988.27
2022-11-08T07:50:18.012Z,988.29
2022-11-08T07:51:16.727Z,988.35
2022-11-08T07:52:16.754Z,988.31
2022-11-08T07:53:17.235Z,988.36
2022-11-08T07:54:16.766Z,988.27
2022-11-08T07:55:16.770Z,988.42
2022-11-08T07:56:16.791Z,988.40
2022-11-08T07:57:16.806Z,988.39
2022-11-08T07:58:16.845Z,988.33
2022-11-08T07:59:16.825Z,988.32
2022-11-08T08:00:16.830Z,988.36
2022-11-08T08:01:16.848Z,988.49
2022-11-08T08:02:16.984Z,988.31
2022-11-08T08:03:17.212Z,988.44
2022-11-08T08:04:16.909Z,988.30
2022-11-08T08:05:16.909Z,988.42
2022-11-08T08:06:16.927Z,988.46
2022-11-08T08:07:16.925Z,988.37
2022-11-08T08:08:16.947Z,988.47
2022-11-08T08:09:16.960Z,988.30
2022-11-08T08:10:16.960Z,988.50
2022-11-08T08:11:16.968Z,988.36
2022-11-08T08:12:16.997Z,988.39
2022-11-08T08:13:17.143Z,988.32
2022-11-08T08:14:17.004Z,988.37
2022-11-08T08:15:17.030Z,988.37
2022-11-08T08:16:17.039Z,988.31
2022-11-08T08:17:17.049Z,988.28
2022-11-08T08:18:17.077Z,988.21
2022-11-08T08:19:17.081Z,988.27
2022-11-08T08:20:17.102Z,988.36
2022-11-08T08:21:17.103Z,988.31
2022-11-08T08:22:17.117Z,988.31
2022-11-08T08:23:17.494Z,988.24
2022-11-08T08:24:17.164Z,988.26
2022-11-08T08:25:17.153Z,988.21
2022-11-08T08:26:17.158Z,988.25
2022-11-08T08:27:17.168Z,988.24
2022-11-08T08:28:17.181Z,988.16
2022-11-08T08:29:17.246Z,988.24
2022-11-08T08:30:17.267Z,988.22
2022-11-08T08:31:17.247Z,988.20
2022-11-08T08:32:17.200Z,988.27
2022-11-08T08:33:28.843Z,988.17
2022-11-08T08:34:17.280Z,988.25
2022-11-08T08:35:17.271Z,988.16
2022-11-08T08:36:17.284Z,988.25
2022-11-08T08:37:17.260Z,988.21
2022-11-08T08:38:17.221Z,988.25
2022-11-08T08:39:17.281Z,988.26
2022-11-08T08:40:17.247Z,988.31
2022-11-08T08:41:17.304Z,988.29
2022-11-08T08:42:17.265Z,988.28
2022-11-08T08:43:17.737Z,988.26
2022-11-08T08:44:17.276Z,988.34
2022-11-08T08:45:17.282Z,988.31
2022-11-08T08:46:17.301Z,988.28
2022-11-08T08:47:17.284Z,988.25
2022-11-08T08:48:17.301Z,988.28
2022-11-08T08:49:17.311Z,988.37
2022-11-08T08:50:17.294Z,988.37
2022-11-08T08:51:17.293Z,988.36
2022-11-08T08:52:17.286Z,988.35
2022-11-08T08:53:17.536Z,988.43
2022-11-08T08:54:17.277Z,988.36
2022-11-08T08:55:17.295Z,988.35
2022-11-08T08:56:17.289Z,988.39
2022-11-08T08:57:17.309Z,988.40
2022-11-08T08:58:17.321Z,988.47
2022-11-08T09:01:39.930Z,988.48
2022-11-08T09:02:17.307Z,988.40
2022-11-08T09:03:17.747Z,988.49
2022-11-08T09:04:17.306Z,988.49
2022-11-08T09:05:17.311Z,988.42
2022-11-08T09:06:17.289Z,988.38
2022-11-08T09:07:17.340Z,988.49
2022-11-08T09:08:17.321Z,988.42
2022-11-08T09:09:17.330Z,988.49
2022-11-08T09:10:17.308Z,988.39
2022-11-08T09:11:17.310Z,988.35
2022-11-08T09:12:17.291Z,988.33
2022-11-08T09:13:17.640Z,988.39
2022-11-08T09:14:17.323Z,988.30
2022-11-08T09:15:17.353Z,988.32
2022-11-08T09:16:17.303Z,988.38
2022-11-08T09:17:17.324Z,988.25
2022-11-08T09:18:17.383Z,988.33
2022-11-08T09:19:17.327Z,988.25
2022-11-08T09:20:17.283Z,988.33
2022-11-08T09:21:17.378Z,988.24
2022-11-08T09:22:17.354Z,988.25
2022-11-08T09:23:17.720Z,988.30
2022-11-08T09:24:17.350Z,988.33
2022-11-08T09:25:17.347Z,988.32
2022-11-08T09:26:17.339Z,988.32
2022-11-08T09:27:17.328Z,988.29
2022-11-08T09:28:17.340Z,988.32
2022-11-08T09:29:17.358Z,988.40
2022-11-08T09:30:17.365Z,988.31
2022-11-08T09:31:17.325Z,988.29
2022-11-08T09:32:24.819Z,988.31
2022-11-08T09:33:17.770Z,988.33
2022-11-08T09:34:20.516Z,988.32
2022-11-08T09:35:17.366Z,988.39
2022-11-08T09:36:17.324Z,988.33
2022-11-08T09:37:17.343Z,988.29
2022-11-08T09:38:17.599Z,988.29
2022-11-08T09:39:17.344Z,988.37
2022-11-08T09:41:17.363Z,988.28
2022-11-08T09:42:17.334Z,988.42
2022-11-08T09:43:17.554Z,988.43
2022-11-08T09:44:17.348Z,988.35
2022-11-08T09:45:17.377Z,988.42
2022-11-08T09:46:17.356Z,988.36
2022-11-08T09:47:17.347Z,988.45
2022-11-08T09:48:17.355Z,988.35
2022-11-08T09:49:17.355Z,988.32
2022-11-08T09:50:17.364Z,988.35
2022-11-08T09:51:17.353Z,988.36
2022-11-08T09:52:17.341Z,988.38
2022-11-08T09:53:17.744Z,988.26
2022-11-08T09:54:19.492Z,988.40
2022-11-08T09:55:17.381Z,988.39
2022-11-08T09:56:17.348Z,988.34
2022-11-08T09:57:17.367Z,988.32
2022-11-08T09:58:17.370Z,988.31
2022-11-08T09:59:17.371Z,988.18
2022-11-08T10:00:17.380Z,988.27
2022-11-08T10:01:17.598Z,988.30
2022-11-08T10:02:17.428Z,988.24
2022-11-08T10:03:17.627Z,988.30
2022-11-08T10:04:17.362Z,988.26
2022-11-08T10:05:17.360Z,988.21
2022-11-08T10:06:18.168Z,988.28
2022-11-08T10:07:17.472Z,988.22
2022-11-08T10:08:17.361Z,988.24
2022-11-08T10:09:17.369Z,988.33
2022-11-08T10:10:17.372Z,988.30
2022-11-08T10:11:17.380Z,988.33
2022-11-08T10:12:17.390Z,988.40
2022-11-08T10:13:17.640Z,988.25
2022-11-08T10:14:17.400Z,988.29
2022-11-08T10:15:17.418Z,988.29
2022-11-08T10:16:17.435Z,988.29
2022-11-08T10:17:17.452Z,988.23
2022-11-08T10:18:17.463Z,988.39
2022-11-08T10:19:17.470Z,988.30
2022-11-08T10:20:17.477Z,988.31
2022-11-08T10:21:17.481Z,988.23
2022-11-08T10:22:17.516Z,988.33
2022-11-08T10:23:17.898Z,988.25
2022-11-08T10:24:17.519Z,988.29
2022-11-08T10:25:17.556Z,988.32
2022-11-08T10:26:20.536Z,988.38
2022-11-08T10:27:17.565Z,988.35
2022-11-08T10:28:17.570Z,988.30
2022-11-08T10:29:17.552Z,988.41
2022-11-08T10:30:17.567Z,988.55
2022-11-08T10:31:17.549Z,988.53
2022-11-08T10:32:17.560Z,988.48
2022-11-08T10:33:17.940Z,988.54
2022-11-08T10:34:17.576Z,988.52
2022-11-08T10:35:17.554Z,988.55
2022-11-08T10:36:17.556Z,988.47
2022-11-08T10:37:17.563Z,988.45
2022-11-08T10:38:17.558Z,988.59
2022-11-08T10:39:17.579Z,988.56
2022-11-08T10:40:17.560Z,988.56
2022-11-08T10:41:17.564Z,988.56
2022-11-08T10:42:17.563Z,988.61
2022-11-08T10:43:17.669Z,988.55
2022-11-08T10:44:17.556Z,988.49
2022-11-08T10:45:17.597Z,988.45
2022-11-08T10:46:17.598Z,988.45
2022-11-08T10:47:17.578Z,988.36
2022-11-08T10:48:17.946Z,988.41
2022-11-08T10:49:17.567Z,988.43
2022-11-08T10:50:17.611Z,988.52
2022-11-08T10:51:17.597Z,988.45
2022-11-08T10:52:17.582Z,988.42
2022-11-08T10:53:17.937Z,988.27
2022-11-08T10:54:17.580Z,988.35
2022-11-08T10:55:17.586Z,988.26
2022-11-08T10:56:17.594Z,988.36
2022-11-08T10:57:17.584Z,988.36
2022-11-08T10:58:17.850Z,988.36
2022-11-08T10:59:17.595Z,988.33
2022-11-08T11:00:17.674Z,988.25
2022-11-08T11:01:17.660Z,988.26
2022-11-08T11:02:17.643Z,988.22
2022-11-08T11:03:17.583Z,988.26
2022-11-08T11:04:17.603Z,988.22
2022-11-08T11:05:17.615Z,988.25
2022-11-08T11:06:17.602Z,988.23
2022-11-08T11:07:17.691Z,988.28
2022-11-08T11:08:17.858Z,988.20
2022-11-08T11:09:17.610Z,988.21
2022-11-08T11:10:17.677Z,988.25
2022-11-08T11:11:17.602Z,988.26
2022-11-08T11:12:17.630Z,988.16
2022-11-08T11:13:17.663Z,988.19
2022-11-08T11:14:21.952Z,988.15
2022-11-08T11:15:17.614Z,988.20
2022-11-08T11:16:17.619Z,988.18
2022-11-08T11:17:17.707Z,988.17
2022-11-08T11:18:17.857Z,988.15
2022-11-08T11:19:17.629Z,988.18
2022-11-08T11:20:17.610Z,988.05
2022-11-08T11:21:17.620Z,988.11
2022-11-08T11:22:17.623Z,988.02
2022-11-08T11:23:17.610Z,988.11
2022-11-08T11:24:19.404Z,988.01
2022-11-08T11:25:17.755Z,988.08
2022-11-08T11:26:17.726Z,988.04
2022-11-08T11:27:17.814Z,988.03
2022-11-08T11:28:18.125Z,988.01
2022-11-08T11:29:17.805Z,987.99
2022-11-08T11:30:17.819Z,988.00
2022-11-08T11:31:17.841Z,988.03
2022-11-08T11:32:17.856Z,988.00
2022-11-08T11:33:17.890Z,988.06
2022-11-08T11:34:17.957Z,988.02
2022-11-08T11:35:17.880Z,987.97
2022-11-08T11:36:17.891Z,988.03
2022-11-08T11:37:17.924Z,988.02
2022-11-08T11:38:18.235Z,987.98
2022-11-08T11:39:17.931Z,987.97
2022-11-08T11:40:17.936Z,987.96
2022-11-08T11:41:17.995Z,988.00
2022-11-08T11:42:43.868Z,988.04
2022-11-08T11:43:17.950Z,987.91
2022-11-08T11:44:17.984Z,987.93
2022-11-08T11:45:17.967Z,987.99
2022-11-08T11:46:17.997Z,987.94
2022-11-08T11:47:17.972Z,987.93
2022-11-08T11:48:18.478Z,987.89
2022-11-08T11:49:17.961Z,987.96
2022-11-08T11:50:17.970Z,987.89
2022-11-08T11:51:18.057Z,987.91
2022-11-08T11:52:17.968Z,987.94
2022-11-08T11:53:18.000Z,987.86
2022-11-08T11:54:17.965Z,987.86
2022-11-08T11:55:17.979Z,987.76
2022-11-08T11:56:17.973Z,987.79
2022-11-08T11:57:17.976Z,987.69
2022-11-08T11:58:18.254Z,987.83
2022-11-08T11:59:17.978Z,987.62
2022-11-08T12:00:17.990Z,987.75
2022-11-08T12:01:17.991Z,987.77
2022-11-08T12:02:18.054Z,987.81
2022-11-08T12:03:18.328Z,987.88
2022-11-08T12:04:17.993Z,987.89
2022-11-08T12:05:17.978Z,987.81
2022-11-08T12:06:17.994Z,987.80
2022-11-08T12:07:18.004Z,987.77
2022-11-08T12:08:18.231Z,987.81
2022-11-08T12:09:17.996Z,987.84
2022-11-08T12:10:18.021Z,987.74
2022-11-08T12:11:17.983Z,987.82
2022-11-08T12:12:17.984Z,987.82
2022-11-08T12:13:17.986Z,987.77
2022-11-08T12:14:18.040Z,987.83
2022-11-08T12:15:17.996Z,987.80
2022-11-08T12:16:17.979Z,987.94
2022-11-08T12:17:18.001Z,987.84
2022-11-08T12:18:36.687Z,987.88
2022-11-08T12:19:18.265Z,987.85
2022-11-08T12:20:20.509Z,987.80
2022-11-08T12:21:18.022Z,987.86
2022-11-08T12:22:18.003Z,987.91
2022-11-08T12:23:18.010Z,987.86
2022-11-08T12:24:18.018Z,987.85
2022-11-08T12:25:18.003Z,987.80
2022-11-08T12:26:18.000Z,987.90
2022-11-08T12:27:18.000Z,987.79
2022-11-08T12:28:18.299Z,987.86
2022-11-08T12:29:18.029Z,987.77
2022-11-08T12:30:18.041Z,987.78
2022-11-08T12:31:18.021Z,987.78
2022-11-08T12:32:18.015Z,987.71